createdAt,value
2023-01-18T00:00:46.992Z,31.65
2023-01-18T00:03:14.134Z,33.05
2023-01-18T00:05:42.136Z,32.45
2023-01-18T00:08:10.671Z,32.78
2023-01-18T00:10:37.948Z,33.72
2023-01-18T00:13:05.260Z,33.13
2023-01-18T00:15:33.104Z,33.40
2023-01-18T00:17:59.933Z,34.38
2023-01-18T00:20:28.411Z,34.00
2023-01-18T00:22:55.871Z,35.67
2023-01-18T00:25:24.330Z,32.83
2023-01-18T00:27:53.316Z,31.90
2023-01-18T00:30:22.922Z,32.33
2023-01-18T00:32:53.479Z,33.53
2023-01-18T00:35:22.187Z,33.00
2023-01-18T00:37:51.605Z,33.17
2023-01-18T00:40:20.373Z,31.25
2023-01-18T00:43:05.947Z,30.40
2023-01-18T00:45:32.824Z,30.23
2023-01-18T00:47:59.587Z,30.38
2023-01-18T00:50:26.360Z,29.70
2023-01-18T00:52:57.094Z,27.52
2023-01-18T00:55:24.315Z,29.08
2023-01-18T00:57:51.209Z,26.70
2023-01-18T01:00:19.229Z,27.05
2023-01-18T01:02:46.007Z,26.88
2023-01-18T01:05:40.753Z,27.55
2023-01-18T01:08:07.912Z,24.38
2023-01-18T01:10:36.095Z,24.85
2023-01-18T01:13:21.442Z,25.08
2023-01-18T01:16:06.948Z,24.67
2023-01-18T01:18:52.400Z,25.08
2023-01-18T01:21:37.813Z,24.83
2023-01-18T01:24:23.687Z,27.30
2023-01-18T01:26:50.390Z,26.10
2023-01-18T01:29:17.588Z,25.17
2023-01-18T01:31:44.584Z,25.67
2023-01-18T01:34:11.340Z,26.60
2023-01-18T01:36:38.210Z,27.60
2023-01-18T01:39:07.090Z,28.05
2023-01-18T01:41:35.151Z,29.02
2023-01-18T01:44:30.177Z,29.10
2023-01-18T01:47:09.470Z,26.15
2023-01-18T01:49:41.640Z,28.48
2023-01-18T01:52:15.853Z,27.63
2023-01-18T01:54:47.787Z,28.05
2023-01-18T01:57:21.894Z,27.05
2023-01-18T02:00:01.011Z,26.15
2023-01-18T02:02:29.756Z,26.08
2023-01-18T02:04:59.048Z,24.58
2023-01-18T02:07:26.408Z,26.10
2023-01-18T02:09:54.343Z,23.15
2023-01-18T02:12:21.096Z,21.98
2023-01-18T02:14:47.912Z,22.17
2023-01-18T02:17:48.667Z,22.33
2023-01-18T02:20:47.323Z,21.73
2023-01-18T02:23:22.879Z,20.38
2023-01-18T02:28:20.964Z,21.35
2023-01-18T02:30:47.700Z,20.90
2023-01-18T02:33:18.186Z,21.50
2023-01-18T02:35:52.316Z,22.10
2023-01-18T02:38:44.266Z,21.88
2023-01-18T02:41:46.480Z,23.63
2023-01-18T02:44:36.362Z,22.33
2023-01-18T02:47:04.547Z,22.20
2023-01-18T02:49:32.251Z,21.67
2023-01-18T02:52:06.838Z,22.63
2023-01-18T02:54:37.481Z,21.95
2023-01-18T02:57:08.894Z,22.38
2023-01-18T02:59:41.510Z,23.67
2023-01-18T03:02:18.213Z,22.77
2023-01-18T03:04:57.017Z,22.02
2023-01-18T03:07:36.051Z,21.75
2023-01-18T03:10:09.579Z,19.88
2023-01-18T03:13:05.197Z,20.45
2023-01-18T03:15:56.290Z,21.60
2023-01-18T03:18:59.838Z,19.63
2023-01-18T03:21:48.505Z,20.42
2023-01-18T03:24:18.172Z,21.48
2023-01-18T03:26:49.934Z,20.45
2023-01-18T03:29:37.864Z,21.20
2023-01-18T03:32:23.253Z,19.67
2023-01-18T03:34:55.874Z,20.38
2023-01-18T03:37:43.657Z,20.55
2023-01-18T03:40:13.358Z,20.05
2023-01-18T03:42:58.063Z,20.02
2023-01-18T03:45:35.126Z,19.67
2023-01-18T03:48:02.461Z,20.67
2023-01-18T03:51:02.211Z,19.27
2023-01-18T03:53:42.627Z,19.33
2023-01-18T03:56:22.468Z,18.63
2023-01-18T03:58:52.659Z,20.15
2023-01-18T04:01:19.438Z,18.20
2023-01-18T04:03:46.470Z,19.38
2023-01-18T04:06:13.183Z,18.88
2023-01-18T04:08:39.885Z,18.08
2023-01-18T04:11:06.693Z,17.23
2023-01-18T04:13:33.432Z,17.38
2023-01-18T04:16:00.191Z,18.52
2023-01-18T04:18:27.067Z,18.70
2023-01-18T04:20:56.462Z,16.95
2023-01-18T04:23:23.979Z,16.60
2023-01-18T04:25:51.535Z,18.30
2023-01-18T04:28:25.276Z,17.70
2023-01-18T04:30:53.468Z,18.10
2023-01-18T04:33:20.694Z,18.00
2023-01-18T04:35:48.576Z,17.95
2023-01-18T04:38:16.728Z,16.92
2023-01-18T04:40:43.652Z,18.13
2023-01-18T04:43:10.401Z,17.65
2023-01-18T04:45:37.195Z,18.50
2023-01-18T04:48:04.406Z,18.00
2023-01-18T04:50:31.161Z,17.98
2023-01-18T04:52:58.798Z,18.20
2023-01-18T04:55:25.751Z,18.52
2023-01-18T04:57:59.501Z,18.52
2023-01-18T05:00:26.184Z,17.83
2023-01-18T05:02:52.929Z,18.63
2023-01-18T05:05:19.725Z,17.95
2023-01-18T05:07:46.505Z,19.05
2023-01-18T05:10:13.722Z,17.77
2023-01-18T05:12:40.806Z,18.27
2023-01-18T05:15:08.318Z,17.38
2023-01-18T05:17:35.199Z,19.10
2023-01-18T05:20:04.388Z,18.98
2023-01-18T05:22:33.036Z,19.90
2023-01-18T05:25:00.551Z,20.65
2023-01-18T05:27:27.391Z,18.92
2023-01-18T05:29:54.120Z,20.50
2023-01-18T05:32:20.872Z,19.30
2023-01-18T05:34:47.644Z,20.77
2023-01-18T05:37:14.420Z,20.98
2023-01-18T05:39:41.191Z,19.83
2023-01-18T05:42:08.784Z,19.52
2023-01-18T05:44:35.876Z,19.23
2023-01-18T05:47:02.635Z,19.83
2023-01-18T05:49:30.063Z,19.48
2023-01-18T05:51:56.885Z,19.42
2023-01-18T05:54:23.694Z,19.88
2023-01-18T05:56:50.637Z,19.02
2023-01-18T05:59:17.419Z,18.25
2023-01-18T06:01:44.172Z,20.08
2023-01-18T06:04:11.291Z,20.25
2023-01-18T06:06:38.136Z,20.10
2023-01-18T06:09:05.023Z,20.42
2023-01-18T06:11:31.884Z,20.80
2023-01-18T06:13:58.620Z,20.85
2023-01-18T06:16:25.367Z,20.77
2023-01-18T06:18:52.139Z,19.52
2023-01-18T06:21:18.921Z,20.08
2023-01-18T06:23:45.627Z,19.63
2023-01-18T06:26:12.377Z,19.48
2023-01-18T06:28:39.093Z,20.70
2023-01-18T06:31:08.259Z,21.05
2023-01-18T06:33:35.360Z,21.33
2023-01-18T06:36:02.479Z,22.70
2023-01-18T06:38:29.883Z,22.52
2023-01-18T06:40:57.036Z,20.08
2023-01-18T06:43:24.127Z,21.60
2023-01-18T06:45:57.861Z,22.50
2023-01-18T06:48:26.431Z,20.20
2023-01-18T06:50:56.701Z,21.02
2023-01-18T06:53:23.590Z,22.25
2023-01-18T06:55:54.970Z,21.67
2023-01-18T06:58:21.685Z,21.98
2023-01-18T07:00:48.849Z,22.52
2023-01-18T07:03:15.595Z,23.25
2023-01-18T07:05:42.431Z,22.20
2023-01-18T07:08:09.253Z,21.77
2023-01-18T07:10:36.321Z,20.75
2023-01-18T07:13:03.067Z,21.27
2023-01-18T07:15:29.940Z,20.38
2023-01-18T07:17:56.730Z,19.65
2023-01-18T07:20:23.674Z,20.75
2023-01-18T07:22:52.076Z,20.30
2023-01-18T07:25:20.682Z,21.13
2023-01-18T07:27:49.038Z,19.55
2023-01-18T07:30:16.346Z,23.15
2023-01-18T07:32:51.673Z,22.20
2023-01-18T07:35:22.248Z,19.98
2023-01-18T07:37:50.435Z,18.42
2023-01-18T07:40:17.681Z,18.75
2023-01-18T07:42:44.861Z,18.35
2023-01-18T07:45:13.808Z,19.63
2023-01-18T07:47:41.859Z,18.60
2023-01-18T07:50:09.821Z,19.17
2023-01-18T07:52:36.598Z,19.98
2023-01-18T07:55:06.515Z,20.33
2023-01-18T07:57:33.595Z,21.48
2023-01-18T08:00:00.392Z,20.98
2023-01-18T08:02:27.258Z,21.42
2023-01-18T08:04:54.188Z,21.45
2023-01-18T08:07:21.040Z,22.25
2023-01-18T08:09:47.763Z,22.42
2023-01-18T08:12:18.089Z,21.75
2023-01-18T08:14:48.113Z,22.23
2023-01-18T08:17:14.851Z,21.98
2023-01-18T08:19:41.687Z,21.80
2023-01-18T08:22:08.474Z,19.25
2023-01-18T08:24:35.270Z,20.80
2023-01-18T08:27:02.064Z,20.58
2023-01-18T08:29:28.877Z,23.05
2023-01-18T08:31:56.138Z,22.63
2023-01-18T08:34:23.462Z,22.23
2023-01-18T08:36:50.991Z,22.20
2023-01-18T08:39:17.803Z,22.77
2023-01-18T08:41:46.610Z,23.30
2023-01-18T08:44:13.687Z,24.30
2023-01-18T08:46:40.598Z,25.23
2023-01-18T08:49:07.725Z,26.38
2023-01-18T08:51:34.716Z,25.92
2023-01-18T08:54:01.837Z,25.45
2023-01-18T08:56:29.355Z,26.35
2023-01-18T08:58:56.390Z,24.60
2023-01-18T09:01:26.200Z,25.52
2023-01-18T09:03:58.574Z,25.73
2023-01-18T09:06:31.754Z,24.88
2023-01-18T09:08:59.477Z,24.80
2023-01-18T09:11:26.353Z,23.95
2023-01-18T09:14:00.792Z,25.02
2023-01-18T09:16:29.150Z,23.83
2023-01-18T09:18:56.296Z,23.90
2023-01-18T09:21:23.470Z,24.65
2023-01-18T09:23:50.909Z,24.88
2023-01-18T09:26:20.411Z,23.27
2023-01-18T09:28:52.700Z,23.63
2023-01-18T09:31:21.989Z,23.92
2023-01-18T09:33:53.645Z,23.92
2023-01-18T09:36:26.454Z,22.33
2023-01-18T09:38:54.243Z,23.58
2023-01-18T09:41:47.407Z,24.50
2023-01-18T09:44:35.007Z,23.92
2023-01-18T09:47:22.344Z,26.25
2023-01-18T09:49:57.506Z,23.98
2023-01-18T09:52:33.656Z,24.45
2023-01-18T09:55:08.796Z,23.92
2023-01-18T09:57:55.401Z,22.92
2023-01-18T10:00:26.719Z,25.15
2023-01-18T10:03:00.694Z,25.92
2023-01-18T10:05:33.258Z,24.48
2023-01-18T10:08:12.065Z,24.23
2023-01-18T10:10:44.887Z,23.27
2023-01-18T10:13:33.685Z,23.67
2023-01-18T10:16:02.456Z,25.40
2023-01-18T10:18:30.300Z,26.73
2023-01-18T10:21:04.929Z,24.65
2023-01-18T10:23:36.675Z,23.17
2023-01-18T10:26:09.581Z,24.42
2023-01-18T10:28:45.300Z,24.42
2023-01-18T10:31:50.425Z,24.88
2023-01-18T10:34:20.714Z,26.13
2023-01-18T10:37:07.081Z,26.40
2023-01-18T10:39:43.841Z,23.70
2023-01-18T10:42:46.377Z,25.05
2023-01-18T10:45:23.823Z,23.10
2023-01-18T10:47:53.086Z,22.67
2023-01-18T10:50:35.569Z,23.00
2023-01-18T10:53:21.318Z,21.90
2023-01-18T10:55:59.947Z,20.27
2023-01-18T10:58:33.955Z,21.15
2023-01-18T11:01:03.594Z,20.10
2023-01-18T11:03:35.873Z,19.45
2023-01-18T11:06:06.888Z,17.75
2023-01-18T11:08:35.554Z,17.40
2023-01-18T11:11:16.121Z,17.75
2023-01-18T11:13:45.865Z,18.30
2023-01-18T11:16:21.057Z,17.27
2023-01-18T11:18:57.882Z,16.50
2023-01-18T11:21:31.779Z,17.58
2023-01-18T11:24:05.471Z,18.17
2023-01-18T11:26:32.551Z,17.35
2023-01-18T11:29:02.040Z,17.38
2023-01-18T11:31:46.000Z,17.50
2023-01-18T11:34:30.152Z,17.13
2023-01-18T11:36:58.465Z,18.52
2023-01-18T11:39:33.268Z,18.65
2023-01-18T11:42:17.022Z,17.27
2023-01-18T11:44:55.689Z,17.70
2023-01-18T11:47:33.993Z,23.65
2023-01-18T11:50:22.541Z,22.08
2023-01-18T11:52:53.868Z,25.73
2023-01-18T11:55:26.861Z,25.75
2023-01-18T11:57:54.131Z,29.10
2023-01-18T12:00:27.962Z,27.60
2023-01-18T12:03:13.306Z,27.48
2023-01-18T12:05:57.736Z,27.00
2023-01-18T12:08:38.216Z,27.30
2023-01-18T12:11:23.454Z,27.30
2023-01-18T12:14:12.762Z,25.98
2023-01-18T12:17:07.459Z,24.60
2023-01-18T12:19:45.687Z,23.15
2023-01-18T12:22:31.538Z,23.02
2023-01-18T12:25:35.181Z,24.00
2023-01-18T12:28:26.809Z,24.10
2023-01-18T12:31:08.848Z,23.10
2023-01-18T12:33:52.897Z,23.15
2023-01-18T12:36:49.192Z,24.65
2023-01-18T12:39:25.052Z,22.23
2023-01-18T12:42:05.725Z,22.08
2023-01-18T12:44:38.282Z,22.92
2023-01-18T12:47:39.804Z,21.35
2023-01-18T12:50:24.942Z,20.95
2023-01-18T12:52:57.325Z,21.10
2023-01-18T12:55:26.073Z,22.27
2023-01-18T12:58:00.898Z,22.63
2023-01-18T13:00:36.667Z,21.27
2023-01-18T13:05:52.711Z,21.55
2023-01-18T13:08:27.641Z,21.80
2023-01-18T13:11:03.393Z,21.98
2023-01-18T13:13:31.000Z,21.42
2023-01-18T13:16:31.732Z,21.52
2023-01-18T13:19:03.772Z,20.42
2023-01-18T13:22:00.241Z,19.67
2023-01-18T13:27:11.852Z,20.48
2023-01-18T13:29:39.836Z,19.98
2023-01-18T13:32:27.895Z,21.00
2023-01-18T13:35:19.586Z,21.20
2023-01-18T13:37:57.788Z,19.55
2023-01-18T13:40:24.950Z,19.52
2023-01-18T13:42:51.920Z,20.08
2023-01-18T13:45:27.844Z,20.95
2023-01-18T13:48:46.637Z,20.92
2023-01-18T13:51:41.520Z,22.25
2023-01-18T13:54:08.262Z,20.63
2023-01-18T13:56:39.584Z,21.13
2023-01-18T13:59:12.357Z,20.60
2023-01-18T14:01:43.948Z,21.63
2023-01-18T14:04:35.753Z,19.80
2023-01-18T14:07:05.695Z,19.92
2023-01-18T14:09:37.192Z,21.55
2023-01-18T14:12:04.873Z,21.00
2023-01-18T14:14:50.858Z,21.60
2023-01-18T14:19:47.259Z,20.70
2023-01-18T14:22:40.634Z,22.45
2023-01-18T14:25:36.452Z,20.33
2023-01-18T14:28:11.075Z,21.63
2023-01-18T14:30:41.121Z,20.90
2023-01-18T14:33:37.270Z,21.15
2023-01-18T14:36:06.631Z,20.67
2023-01-18T14:38:33.453Z,20.70
2023-01-18T14:41:05.401Z,20.25
2023-01-18T14:43:43.347Z,21.02
2023-01-18T14:46:25.921Z,19.60
2023-01-18T14:48:56.271Z,19.70
2023-01-18T14:51:28.360Z,20.25
2023-01-18T14:54:01.971Z,20.73
2023-01-18T14:56:32.216Z,20.98
2023-01-18T14:59:16.199Z,21.58
2023-01-18T15:01:52.464Z,20.27
2023-01-18T15:04:24.414Z,21.05
2023-01-18T15:06:58.859Z,21.30
2023-01-18T15:09:30.320Z,20.35
2023-01-18T15:12:01.261Z,19.42
2023-01-18T15:14:34.530Z,19.83
2023-01-18T15:17:05.892Z,19.92
2023-01-18T15:19:43.933Z,21.80
2023-01-18T15:22:16.697Z,18.80
2023-01-18T15:24:45.402Z,20.58
2023-01-18T15:27:20.485Z,20.15
2023-01-18T15:29:56.680Z,21.15
2023-01-18T15:32:26.121Z,19.55
2023-01-18T15:34:55.046Z,19.67
2023-01-18T15:37:39.228Z,18.92
2023-01-18T15:40:15.102Z,19.33
2023-01-18T15:43:00.573Z,19.67
2023-01-18T15:45:30.478Z,20.00
2023-01-18T15:48:06.998Z,19.27
2023-01-18T15:50:38.095Z,20.30
2023-01-18T15:53:11.993Z,20.27
2023-01-18T15:55:47.105Z,19.40
2023-01-18T15:58:34.696Z,20.30
2023-01-18T16:01:07.842Z,20.00
2023-01-18T16:03:48.748Z,20.80
2023-01-18T16:06:32.573Z,20.05
2023-01-18T16:08:59.293Z,19.35
2023-01-18T16:11:30.752Z,19.83
2023-01-18T16:14:00.196Z,20.65
2023-01-18T16:16:28.358Z,21.05
2023-01-18T16:19:04.125Z,20.10
2023-01-18T16:22:14.871Z,20.92
2023-01-18T16:24:49.778Z,19.58
2023-01-18T16:27:19.140Z,20.80
2023-01-18T16:29:52.240Z,20.58
2023-01-18T16:32:27.867Z,19.40
2023-01-18T16:35:00.216Z,19.10
2023-01-18T16:37:27.474Z,21.08
2023-01-18T16:39:55.373Z,19.90
2023-01-18T16:42:29.572Z,20.55
2023-01-18T16:45:04.355Z,22.15
2023-01-18T16:47:31.098Z,21.10
2023-01-18T16:49:59.215Z,22.20
2023-01-18T16:52:26.308Z,21.58
2023-01-18T16:54:53.094Z,20.95
2023-01-18T16:57:23.314Z,23.05
2023-01-18T16:59:50.805Z,22.00
2023-01-18T17:02:17.737Z,22.92
2023-01-18T17:04:46.489Z,23.60
2023-01-18T17:07:13.768Z,23.40
2023-01-18T17:09:48.293Z,23.35
2023-01-18T17:12:15.945Z,23.73
2023-01-18T17:14:42.797Z,23.13
2023-01-18T17:17:10.551Z,23.05
2023-01-18T17:19:37.933Z,22.92
2023-01-18T17:22:06.435Z,22.75
2023-01-18T17:24:33.280Z,23.02
2023-01-18T17:27:01.168Z,22.20
2023-01-18T17:29:28.195Z,22.58
2023-01-18T17:31:54.981Z,22.55
2023-01-18T17:34:28.083Z,22.45
2023-01-18T17:36:58.082Z,21.77
2023-01-18T17:39:32.065Z,24.13
2023-01-18T17:42:14.277Z,23.75
2023-01-18T17:44:43.323Z,24.67
2023-01-18T17:47:10.043Z,25.15
2023-01-18T17:49:36.924Z,25.45
2023-01-18T17:52:03.737Z,26.55
2023-01-18T17:54:30.690Z,26.85
2023-01-18T17:56:57.581Z,26.33
2023-01-18T17:59:24.449Z,25.33
2023-01-18T18:01:51.287Z,26.63
2023-01-18T18:04:18.590Z,26.20
2023-01-18T18:06:53.756Z,27.05
2023-01-18T18:09:21.027Z,28.00
2023-01-18T18:11:48.033Z,29.42
2023-01-18T18:14:14.770Z,28.88
2023-01-18T18:16:43.842Z,29.75
2023-01-18T18:19:14.567Z,29.83
2023-01-18T18:21:42.948Z,29.67
2023-01-18T18:24:10.107Z,30.90
2023-01-18T18:26:37.020Z,31.73
2023-01-18T18:29:04.404Z,30.70
2023-01-18T18:31:31.182Z,31.40
2023-01-18T18:33:58.185Z,30.95
2023-01-18T18:36:27.134Z,32.40
2023-01-18T18:38:54.005Z,32.15
2023-01-18T18:41:20.770Z,31.33
2023-01-18T18:43:47.575Z,30.90
2023-01-18T18:46:14.538Z,30.73
2023-01-18T18:48:41.386Z,31.00
2023-01-18T18:51:08.321Z,29.90
2023-01-18T18:53:38.569Z,30.67
2023-01-18T18:56:09.163Z,30.45
2023-01-18T18:58:38.865Z,30.67
2023-01-18T19:01:06.655Z,31.08
2023-01-18T19:03:35.103Z,33.40
2023-01-18T19:06:02.096Z,32.90
2023-01-18T19:08:28.880Z,30.88
2023-01-18T19:10:57.195Z,31.58
2023-01-18T19:13:24.070Z,28.20
2023-01-18T19:15:51.847Z,30.73
2023-01-18T19:18:18.834Z,30.15
2023-01-18T19:20:45.690Z,31.40
2023-01-18T19:23:13.778Z,29.15
2023-01-18T19:25:41.033Z,32.10
2023-01-18T19:28:08.104Z,31.77
2023-01-18T19:30:35.056Z,32.70
2023-01-18T19:33:03.249Z,30.80
2023-01-18T19:35:31.121Z,31.95
2023-01-18T19:38:00.782Z,30.55
2023-01-18T19:40:27.785Z,30.88
2023-01-18T19:42:54.665Z,32.70
2023-01-18T19:45:27.940Z,31.13
2023-01-18T19:47:56.574Z,30.13
2023-01-18T19:50:24.230Z,29.27
2023-01-18T19:52:51.172Z,28.98
2023-01-18T19:55:18.201Z,30.15
2023-01-18T19:57:44.996Z,28.98
2023-01-18T20:00:12.397Z,29.17
2023-01-18T20:02:40.949Z,29.48
2023-01-18T20:05:08.282Z,29.55
2023-01-18T20:07:37.319Z,27.45
2023-01-18T20:10:04.861Z,28.60
2023-01-18T20:12:32.400Z,27.85
2023-01-18T20:14:59.271Z,27.92
2023-01-18T20:17:26.384Z,28.65
2023-01-18T20:19:54.130Z,28.50
2023-01-18T20:22:21.702Z,27.58
2023-01-18T20:24:48.498Z,27.50
2023-01-18T20:27:17.105Z,28.38
2023-01-18T20:29:44.596Z,26.48
2023-01-18T20:32:19.573Z,27.50
2023-01-18T20:34:47.284Z,27.10
2023-01-18T20:37:15.829Z,27.75
2023-01-18T20:39:42.835Z,25.35
2023-01-18T20:42:09.891Z,27.20
2023-01-18T20:44:36.889Z,27.40
2023-01-18T20:47:04.160Z,26.02
2023-01-18T20:49:38.416Z,26.33
2023-01-18T20:52:07.044Z,28.37
2023-01-18T20:54:36.004Z,26.38
2023-01-18T20:57:03.800Z,25.67
2023-01-18T20:59:30.623Z,27.65
2023-01-18T21:01:57.499Z,25.98
2023-01-18T21:04:25.325Z,27.13
2023-01-18T21:06:52.052Z,26.23
2023-01-18T21:09:18.777Z,26.67
2023-01-18T21:11:45.644Z,25.52
2023-01-18T21:14:12.913Z,27.58
2023-01-18T21:16:39.910Z,26.08
2023-01-18T21:19:06.645Z,26.20
2023-01-18T21:21:33.655Z,27.90
2023-01-18T21:24:00.484Z,27.05
2023-01-18T21:26:27.652Z,26.23
2023-01-18T21:28:54.942Z,25.95
2023-01-18T21:31:22.331Z,25.98
2023-01-18T21:33:49.717Z,27.08
2023-01-18T21:36:18.384Z,28.48
2023-01-18T21:38:45.167Z,27.10
2023-01-18T21:41:31.096Z,27.30
2023-01-18T21:46:47.134Z,26.83
2023-01-18T21:49:47.209Z,27.67
2023-01-18T21:52:38.197Z,27.00
2023-01-18T21:55:05.179Z,28.23
2023-01-18T21:57:31.951Z,28.42
2023-01-18T21:59:58.783Z,29.05
2023-01-18T22:02:25.761Z,28.45
2023-01-18T22:05:03.654Z,28.92
2023-01-18T22:07:34.176Z,28.65
2023-01-18T22:10:05.689Z,29.33
2023-01-18T22:12:35.483Z,29.15
2023-01-18T22:15:04.253Z,28.25
2023-01-18T22:17:31.289Z,29.67
2023-01-18T22:19:58.052Z,30.08
2023-01-18T22:22:24.769Z,30.30
2023-01-18T22:24:51.831Z,28.70
2023-01-18T22:27:18.739Z,29.77
2023-01-18T22:29:45.415Z,28.58
2023-01-18T22:32:12.269Z,29.17
2023-01-18T22:34:39.119Z,28.77
2023-01-18T22:37:05.908Z,27.77
2023-01-18T22:39:32.732Z,29.92
2023-01-18T22:41:59.475Z,28.27
2023-01-18T22:44:26.313Z,27.77
2023-01-18T22:46:53.031Z,28.38
2023-01-18T22:49:20.156Z,28.65
2023-01-18T22:51:46.880Z,26.67
2023-01-18T22:54:13.706Z,29.52
2023-01-18T22:56:40.600Z,27.90
2023-01-18T22:59:07.940Z,26.67
2023-01-18T23:01:34.761Z,28.48
2023-01-18T23:04:03.761Z,27.90
2023-01-18T23:06:47.800Z,28.70
2023-01-18T23:09:17.732Z,30.30
2023-01-18T23:11:45.437Z,28.70
2023-01-18T23:14:30.809Z,28.85
2023-01-18T23:17:16.317Z,28.00
2023-01-18T23:19:43.097Z,30.83
2023-01-18T23:22:11.138Z,29.73
2023-01-18T23:24:38.831Z,30.50
2023-01-18T23:27:08.204Z,29.70
2023-01-18T23:29:35.074Z,28.25
2023-01-18T23:32:01.884Z,29.80
2023-01-18T23:34:28.692Z,29.42
2023-01-18T23:36:55.649Z,31.15
2023-01-18T23:39:41.204Z,32.28
2023-01-18T23:42:26.741Z,30.65
2023-01-18T23:45:12.183Z,29.08
2023-01-18T23:47:57.381Z,27.85
2023-01-18T23:50:43.388Z,29.90
2023-01-18T23:53:31.025Z,30.17
2023-01-18T23:55:58.013Z,30.35
2023-01-18T23:58:25.071Z,29.67
